sensor_id;sensor_type;location;lat;lon;timestamp;pressure;altitude;pressure_sealevel;temperature;humidity
69911;BME280;63555;49.920;17.868;2023-06-10T00:00:39;98421.13;;;15.14;86.66
69911;BME280;63555;49.920;17.868;2023-06-10T00:05:41;98417.31;;;15.17;86.87
69911;BME280;63555;49.920;17.868;2023-06-10T00:10:41;98412.00;;;15.17;86.84
69911;BME280;63555;49.920;17.868;2023-06-10T00:15:42;98420.97;;;15.16;86.81
69911;BME280;63555;49.920;17.868;2023-06-10T00:20:43;98419.59;;;15.12;86.82
69911;BME280;63555;49.920;17.868;2023-06-10T00:25:43;98421.06;;;15.06;86.82
69911;BME280;63555;49.920;17.868;2023-06-10T00:30:43;98419.53;;;15.04;86.81
69911;BME280;63555;49.920;17.868;2023-06-10T00:35:44;98416.66;;;14.97;86.78
69911;BME280;63555;49.920;17.868;2023-06-10T00:40:44;98420.75;;;14.91;86.95
69911;BME280;63555;49.920;17.868;2023-06-10T00:45:45;98422.19;;;14.86;87.09
69911;BME280;63555;49.920;17.868;2023-06-10T00:50:46;98415.22;;;14.85;87.66
69911;BME280;63555;49.920;17.868;2023-06-10T00:55:47;98422.56;;;14.91;87.64
69911;BME280;63555;49.920;17.868;2023-06-10T01:00:48;98419.47;;;14.95;87.73
69911;BME280;63555;49.920;17.868;2023-06-10T01:06:09;98415.50;;;15.00;87.71
69911;BME280;63555;49.920;17.868;2023-06-10T01:11:23;98424.16;;;15.02;87.61
69911;BME280;63555;49.920;17.868;2023-06-10T01:16:25;98418.53;;;15.05;87.74
69911;BME280;63555;49.920;17.868;2023-06-10T01:21:25;98420.91;;;15.08;87.87
69911;BME280;63555;49.920;17.868;2023-06-10T01:26:30;98417.78;;;15.12;87.72
69911;BME280;63555;49.920;17.868;2023-06-10T01:36:35;98426.06;;;15.09;87.87
69911;BME280;63555;49.920;17.868;2023-06-10T01:41:37;98418.78;;;15.11;87.90
69911;BME280;63555;49.920;17.868;2023-06-10T01:46:38;98421.81;;;15.16;87.90
69911;BME280;63555;49.920;17.868;2023-06-10T01:51:38;98418.69;;;15.21;87.82
69911;BME280;63555;49.920;17.868;2023-06-10T01:56:38;98416.56;;;15.24;87.89
69911;BME280;63555;49.920;17.868;2023-06-10T02:01:39;98420.03;;;15.25;87.75
69911;BME280;63555;49.920;17.868;2023-06-10T02:06:39;98414.06;;;15.23;87.90
69911;BME280;63555;49.920;17.868;2023-06-10T02:11:40;98420.19;;;15.23;87.93
69911;BME280;63555;49.920;17.868;2023-06-10T02:16:40;98425.19;;;15.26;87.99
69911;BME280;63555;49.920;17.868;2023-06-10T02:21:41;98428.38;;;15.30;88.15
69911;BME280;63555;49.920;17.868;2023-06-10T02:26:41;98432.41;;;15.34;88.21
69911;BME280;63555;49.920;17.868;2023-06-10T02:31:42;98422.16;;;15.39;88.05
69911;BME280;63555;49.920;17.868;2023-06-10T02:36:42;98423.81;;;15.40;87.88
69911;BME280;63555;49.920;17.868;2023-06-10T02:41:43;98415.16;;;15.38;87.77
69911;BME280;63555;49.920;17.868;2023-06-10T02:46:43;98422.97;;;15.40;88.01
69911;BME280;63555;49.920;17.868;2023-06-10T02:51:44;98415.00;;;15.40;87.98
69911;BME280;63555;49.920;17.868;2023-06-10T02:56:44;98428.97;;;15.42;87.89
69911;BME280;63555;49.920;17.868;2023-06-10T03:01:46;98431.31;;;15.45;87.81
69911;BME280;63555;49.920;17.868;2023-06-10T03:06:46;98425.69;;;15.48;87.91
69911;BME280;63555;49.920;17.868;2023-06-10T03:11:47;98433.34;;;15.51;87.92
69911;BME280;63555;49.920;17.868;2023-06-10T03:16:47;98439.19;;;15.54;87.92
69911;BME280;63555;49.920;17.868;2023-06-10T03:21:50;98439.75;;;15.58;87.87
69911;BME280;63555;49.920;17.868;2023-06-10T03:26:55;98447.13;;;15.64;87.84
69911;BME280;63555;49.920;17.868;2023-06-10T03:31:55;98449.34;;;15.69;87.82
69911;BME280;63555;49.920;17.868;2023-06-10T03:36:56;98445.22;;;15.74;87.84
69911;BME280;63555;49.920;17.868;2023-06-10T03:41:57;98451.72;;;15.80;88.20
69911;BME280;63555;49.920;17.868;2023-06-10T03:46:57;98453.41;;;15.81;87.90
69911;BME280;63555;49.920;17.868;2023-06-10T03:51:57;98445.25;;;15.82;87.93
69911;BME280;63555;49.920;17.868;2023-06-10T03:56:58;98451.94;;;15.86;87.83
69911;BME280;63555;49.920;17.868;2023-06-10T04:01:58;98451.47;;;15.91;87.79
69911;BME280;63555;49.920;17.868;2023-06-10T04:06:58;98449.16;;;15.96;87.83
69911;BME280;63555;49.920;17.868;2023-06-10T04:11:59;98448.53;;;16.02;87.80
69911;BME280;63555;49.920;17.868;2023-06-10T04:16:59;98455.06;;;16.08;87.85
69911;BME280;63555;49.920;17.868;2023-06-10T04:22:03;98454.94;;;16.17;87.73
69911;BME280;63555;49.920;17.868;2023-06-10T04:27:04;98445.66;;;16.30;87.28
69911;BME280;63555;49.920;17.868;2023-06-10T04:32:05;98449.41;;;16.45;87.47
69911;BME280;63555;49.920;17.868;2023-06-10T04:37:06;98452.16;;;16.61;87.21
69911;BME280;63555;49.920;17.868;2023-06-10T04:42:07;98450.53;;;16.68;86.99
69911;BME280;63555;49.920;17.868;2023-06-10T04:47:07;98449.56;;;16.77;87.04
69911;BME280;63555;49.920;17.868;2023-06-10T04:52:08;98448.41;;;16.88;86.86
69911;BME280;63555;49.920;17.868;2023-06-10T04:57:08;98445.59;;;16.98;86.23
69911;BME280;63555;49.920;17.868;2023-06-10T05:02:08;98444.44;;;17.00;86.38
69911;BME280;63555;49.920;17.868;2023-06-10T05:07:09;98455.28;;;17.07;86.26
69911;BME280;63555;49.920;17.868;2023-06-10T05:12:09;98451.13;;;17.20;86.10
69911;BME280;63555;49.920;17.868;2023-06-10T05:17:10;98463.94;;;17.33;85.72
69911;BME280;63555;49.920;17.868;2023-06-10T05:22:10;98465.97;;;17.39;85.32
69911;BME280;63555;49.920;17.868;2023-06-10T05:27:11;98473.97;;;17.39;85.50
69911;BME280;63555;49.920;17.868;2023-06-10T05:32:11;98488.81;;;17.42;85.27
69911;BME280;63555;49.920;17.868;2023-06-10T05:37:12;98484.66;;;17.47;85.23
69911;BME280;63555;49.920;17.868;2023-06-10T05:42:13;98478.00;;;17.68;85.10
69911;BME280;63555;49.920;17.868;2023-06-10T05:47:13;98476.16;;;17.85;84.46
69911;BME280;63555;49.920;17.868;2023-06-10T05:52:13;98482.94;;;18.03;84.31
69911;BME280;63555;49.920;17.868;2023-06-10T05:57:14;98490.44;;;18.24;83.62
69911;BME280;63555;49.920;17.868;2023-06-10T06:02:14;98496.75;;;18.31;83.62
69911;BME280;63555;49.920;17.868;2023-06-10T06:07:15;98487.56;;;18.34;83.11
69911;BME280;63555;49.920;17.868;2023-06-10T06:12:15;98493.59;;;18.28;83.17
69911;BME280;63555;49.920;17.868;2023-06-10T06:17:16;98481.72;;;18.38;83.06
69911;BME280;63555;49.920;17.868;2023-06-10T06:22:16;98492.16;;;18.56;83.35
69911;BME280;63555;49.920;17.868;2023-06-10T06:27:20;98491.50;;;19.24;82.21
69911;BME280;63555;49.920;17.868;2023-06-10T06:32:21;98495.44;;;19.82;80.83
69911;BME280;63555;49.920;17.868;2023-06-10T06:37:23;98498.69;;;20.59;79.04
69911;BME280;63555;49.920;17.868;2023-06-10T06:42:24;98508.44;;;20.96;77.26
69911;BME280;63555;49.920;17.868;2023-06-10T06:47:25;98515.94;;;21.01;76.54
69911;BME280;63555;49.920;17.868;2023-06-10T06:52:26;98522.00;;;21.46;76.27
69911;BME280;63555;49.920;17.868;2023-06-10T06:57:26;98516.66;;;21.88;74.07
69911;BME280;63555;49.920;17.868;2023-06-10T07:02:27;98517.03;;;21.43;73.92
69911;BME280;63555;49.920;17.868;2023-06-10T07:07:27;98517.44;;;20.89;74.70
69911;BME280;63555;49.920;17.868;2023-06-10T07:12:27;98518.81;;;20.70;75.69
69911;BME280;63555;49.920;17.868;2023-06-10T07:17:28;98524.09;;;20.63;75.79
69911;BME280;63555;49.920;17.868;2023-06-10T07:22:28;98518.34;;;20.66;75.13
69911;BME280;63555;49.920;17.868;2023-06-10T07:27:29;98519.19;;;20.67;75.27
69911;BME280;63555;49.920;17.868;2023-06-10T07:32:29;98523.06;;;20.94;74.26
69911;BME280;63555;49.920;17.868;2023-06-10T07:37:29;98522.50;;;20.98;73.59
69911;BME280;63555;49.920;17.868;2023-06-10T07:42:32;98530.25;;;20.79;73.60
69911;BME280;63555;49.920;17.868;2023-06-10T07:47:33;98534.63;;;20.65;73.97
69911;BME280;63555;49.920;17.868;2023-06-10T07:52:34;98523.22;;;21.07;73.36
69911;BME280;63555;49.920;17.868;2023-06-10T07:57:34;98526.41;;;21.32;72.25
69911;BME280;63555;49.920;17.868;2023-06-10T08:02:36;98536.44;;;21.23;71.78
69911;BME280;63555;49.920;17.868;2023-06-10T08:07:37;98549.03;;;20.79;72.21
69911;BME280;63555;49.920;17.868;2023-06-10T08:12:38;98553.84;;;20.54;72.89
69911;BME280;63555;49.920;17.868;2023-06-10T08:17:39;98562.53;;;20.18;73.83
69911;BME280;63555;49.920;17.868;2023-06-10T08:22:39;98566.66;;;20.06;74.25
69911;BME280;63555;49.920;17.868;2023-06-10T08:27:40;98572.94;;;19.98;74.94
69911;BME280;63555;49.920;17.868;2023-06-10T08:32:40;98562.41;;;19.74;75.66
69911;BME280;63555;49.920;17.868;2023-06-10T08:37:40;98574.66;;;19.68;76.02
69911;BME280;63555;49.920;17.868;2023-06-10T08:43:02;98570.91;;;19.47;76.52
69911;BME280;63555;49.920;17.868;2023-06-10T08:48:05;98580.97;;;19.14;77.71
69911;BME280;63555;49.920;17.868;2023-06-10T08:53:13;98578.31;;;19.05;78.51
69911;BME280;63555;49.920;17.868;2023-06-10T08:58:15;98580.59;;;19.48;78.76
69911;BME280;63555;49.920;17.868;2023-06-10T09:03:16;98570.94;;;20.15;77.70
69911;BME280;63555;49.920;17.868;2023-06-10T09:08:16;98574.44;;;21.12;76.02
69911;BME280;63555;49.920;17.868;2023-06-10T09:13:17;98572.94;;;23.82;70.66
69911;BME280;63555;49.920;17.868;2023-06-10T09:18:19;98572.66;;;25.09;66.61
69911;BME280;63555;49.920;17.868;2023-06-10T09:23:19;98582.63;;;24.96;65.78
69911;BME280;63555;49.920;17.868;2023-06-10T09:28:19;98581.31;;;24.40;66.30
69911;BME280;63555;49.920;17.868;2023-06-10T09:33:26;98579.63;;;24.46;66.56
69911;BME280;63555;49.920;17.868;2023-06-10T09:38:31;98576.59;;;25.20;64.71
69911;BME280;63555;49.920;17.868;2023-06-10T09:43:43;98585.63;;;24.55;64.63
69911;BME280;63555;49.920;17.868;2023-06-10T09:48:45;98592.84;;;23.95;65.94
69911;BME280;63555;49.920;17.868;2023-06-10T09:53:50;98582.72;;;24.10;65.80
69911;BME280;63555;49.920;17.868;2023-06-10T09:58:53;98590.44;;;24.39;64.03
69911;BME280;63555;49.920;17.868;2023-06-10T10:03:53;98584.22;;;24.32;64.02
69911;BME280;63555;49.920;17.868;2023-06-10T10:08:54;98593.13;;;24.53;62.85
69911;BME280;63555;49.920;17.868;2023-06-10T10:13:54;98584.13;;;24.85;61.32
69911;BME280;63555;49.920;17.868;2023-06-10T10:18:56;98578.66;;;25.63;59.77
69911;BME280;63555;49.920;17.868;2023-06-10T10:24:11;98574.94;;;27.62;55.96
69911;BME280;63555;49.920;17.868;2023-06-10T10:29:39;98560.28;;;31.24;50.47
69911;BME280;63555;49.920;17.868;2023-06-10T10:34:49;98568.22;;;34.56;43.93
69911;BME280;63555;49.920;17.868;2023-06-10T10:39:52;98573.44;;;34.58;42.06
69911;BME280;63555;49.920;17.868;2023-06-10T10:44:53;98560.84;;;34.72;41.67
69911;BME280;63555;49.920;17.868;2023-06-10T10:49:54;98563.88;;;34.50;41.61
69911;BME280;63555;49.920;17.868;2023-06-10T10:54:54;98553.97;;;34.85;41.59
69911;BME280;63555;49.920;17.868;2023-06-10T10:59:56;98535.06;;;34.88;39.77
69911;BME280;63555;49.920;17.868;2023-06-10T11:05:00;98526.22;;;33.39;41.95
69911;BME280;63555;49.920;17.868;2023-06-10T11:10:12;98527.31;;;32.38;42.83
69911;BME280;63555;49.920;17.868;2023-06-10T11:15:13;98529.38;;;33.05;41.60
69911;BME280;63555;49.920;17.868;2023-06-10T11:20:51;98520.22;;;33.42;39.35
69911;BME280;63555;49.920;17.868;2023-06-10T11:31:20;98506.06;;;33.80;38.59
69911;BME280;63555;49.920;17.868;2023-06-10T11:36:25;98494.41;;;35.60;36.56
69911;BME280;63555;49.920;17.868;2023-06-10T11:41:26;98491.16;;;34.98;36.98
69911;BME280;63555;49.920;17.868;2023-06-10T11:46:27;98499.72;;;32.35;40.92
69911;BME280;63555;49.920;17.868;2023-06-10T11:51:31;98483.81;;;32.69;40.91
69911;BME280;63555;49.920;17.868;2023-06-10T11:56:32;98487.03;;;33.13;39.50
69911;BME280;63555;49.920;17.868;2023-06-10T12:01:34;98492.13;;;32.42;40.08
69911;BME280;63555;49.920;17.868;2023-06-10T12:06:43;98492.78;;;30.32;42.22
69911;BME280;63555;49.920;17.868;2023-06-10T12:11:44;98490.16;;;27.73;45.86
69911;BME280;63555;49.920;17.868;2023-06-10T12:16:48;98500.31;;;25.63;49.86
69911;BME280;63555;49.920;17.868;2023-06-10T12:21:49;98515.97;;;24.45;52.33
69911;BME280;63555;49.920;17.868;2023-06-10T12:26:53;98513.13;;;23.19;54.61
69911;BME280;63555;49.920;17.868;2023-06-10T12:37:01;98529.09;;;21.32;59.55
69911;BME280;63555;49.920;17.868;2023-06-10T12:42:03;98529.91;;;20.96;60.97
69911;BME280;63555;49.920;17.868;2023-06-10T12:47:10;98525.91;;;21.43;60.59
69911;BME280;63555;49.920;17.868;2023-06-10T12:52:14;98520.31;;;23.60;56.11
69911;BME280;63555;49.920;17.868;2023-06-10T12:57:14;98516.31;;;26.82;49.59
69911;BME280;63555;49.920;17.868;2023-06-10T13:02:15;98512.81;;;29.92;44.42
69911;BME280;63555;49.920;17.868;2023-06-10T13:07:16;98509.19;;;32.64;40.31
69911;BME280;63555;49.920;17.868;2023-06-10T13:12:16;98500.72;;;35.06;37.06
69911;BME280;63555;49.920;17.868;2023-06-10T13:17:17;98507.63;;;36.26;34.91
69911;BME280;63555;49.920;17.868;2023-06-10T13:22:18;98501.00;;;36.61;33.77
69911;BME280;63555;49.920;17.868;2023-06-10T13:27:20;98504.22;;;36.68;33.63
69911;BME280;63555;49.920;17.868;2023-06-10T13:32:20;98498.41;;;36.69;33.59
69911;BME280;63555;49.920;17.868;2023-06-10T13:37:21;98492.16;;;36.64;32.73
69911;BME280;63555;49.920;17.868;2023-06-10T13:42:21;98484.31;;;35.50;33.65
69911;BME280;63555;49.920;17.868;2023-06-10T13:47:22;98482.50;;;33.59;35.85
69911;BME280;63555;49.920;17.868;2023-06-10T13:52:22;98473.53;;;34.09;35.47
69911;BME280;63555;49.920;17.868;2023-06-10T13:57:22;98472.66;;;33.53;35.82
69911;BME280;63555;49.920;17.868;2023-06-10T14:02:23;98453.56;;;31.96;38.56
69911;BME280;63555;49.920;17.868;2023-06-10T14:07:23;98440.75;;;31.96;38.22
69911;BME280;63555;49.920;17.868;2023-06-10T14:12:23;98447.22;;;30.83;40.11
69911;BME280;63555;49.920;17.868;2023-06-10T14:17:24;98444.25;;;29.00;43.21
69911;BME280;63555;49.920;17.868;2023-06-10T14:22:24;98453.38;;;27.65;46.05
69911;BME280;63555;49.920;17.868;2023-06-10T14:27:25;98451.53;;;26.87;48.05
69911;BME280;63555;49.920;17.868;2023-06-10T14:32:25;98450.97;;;26.49;49.31
69911;BME280;63555;49.920;17.868;2023-06-10T14:37:26;98446.47;;;27.39;48.09
69911;BME280;63555;49.920;17.868;2023-06-10T14:42:26;98448.97;;;28.41;46.18
69911;BME280;63555;49.920;17.868;2023-06-10T14:47:26;98453.72;;;29.42;44.51
69911;BME280;63555;49.920;17.868;2023-06-10T14:52:27;98459.06;;;29.37;44.46
69911;BME280;63555;49.920;17.868;2023-06-10T14:57:27;98456.63;;;27.97;46.52
69911;BME280;63555;49.920;17.868;2023-06-10T15:02:27;98458.53;;;27.55;47.58
69911;BME280;63555;49.920;17.868;2023-06-10T15:07:28;98456.34;;;29.37;44.46
69911;BME280;63555;49.920;17.868;2023-06-10T15:12:28;98477.00;;;30.67;41.68
69911;BME280;63555;49.920;17.868;2023-06-10T15:17:29;98496.63;;;29.52;42.75
69911;BME280;63555;49.920;17.868;2023-06-10T15:22:29;98489.63;;;27.22;46.99
69911;BME280;63555;49.920;17.868;2023-06-10T15:27:29;98485.25;;;25.17;51.38
69911;BME280;63555;49.920;17.868;2023-06-10T15:32:30;98485.09;;;24.01;54.15
69911;BME280;63555;49.920;17.868;2023-06-10T15:37:30;98489.69;;;23.00;58.07
69911;BME280;63555;49.920;17.868;2023-06-10T15:42:30;98500.34;;;21.47;61.94
69911;BME280;63555;49.920;17.868;2023-06-10T15:47:31;98495.88;;;20.09;65.55
69911;BME280;63555;49.920;17.868;2023-06-10T15:52:31;98504.03;;;19.55;67.92
69911;BME280;63555;49.920;17.868;2023-06-10T15:57:31;98517.72;;;19.29;67.84
69911;BME280;63555;49.920;17.868;2023-06-10T16:02:32;98534.50;;;19.15;66.96
69911;BME280;63555;49.920;17.868;2023-06-10T16:07:32;98546.16;;;19.22;66.25
69911;BME280;63555;49.920;17.868;2023-06-10T16:12:32;98567.06;;;19.18;66.20
69911;BME280;63555;49.920;17.868;2023-06-10T16:17:33;98573.31;;;19.11;66.49
69911;BME280;63555;49.920;17.868;2023-06-10T16:22:33;98573.66;;;19.07;69.61
69911;BME280;63555;49.920;17.868;2023-06-10T16:27:34;98578.34;;;18.09;77.08
69911;BME280;63555;49.920;17.868;2023-06-10T16:32:34;98597.97;;;17.60;83.06
69911;BME280;63555;49.920;17.868;2023-06-10T16:37:34;98594.63;;;17.49;87.54
69911;BME280;63555;49.920;17.868;2023-06-10T16:42:35;98594.28;;;17.44;89.73
69911;BME280;63555;49.920;17.868;2023-06-10T16:47:35;98596.81;;;17.62;92.61
69911;BME280;63555;49.920;17.868;2023-06-10T16:52:35;98602.19;;;17.87;93.83
69911;BME280;63555;49.920;17.868;2023-06-10T16:57:36;98587.53;;;17.91;93.59
69911;BME280;63555;49.920;17.868;2023-06-10T17:02:36;98589.53;;;17.80;93.34
69911;BME280;63555;49.920;17.868;2023-06-10T17:07:37;98590.03;;;17.76;93.93
69911;BME280;63555;49.920;17.868;2023-06-10T17:12:37;98586.34;;;17.77;94.66
69911;BME280;63555;49.920;17.868;2023-06-10T17:17:37;98583.34;;;17.72;94.68
69911;BME280;63555;49.920;17.868;2023-06-10T17:22:38;98583.63;;;17.52;94.35
69911;BME280;63555;49.920;17.868;2023-06-10T17:27:39;98575.78;;;17.35;94.55
69911;BME280;63555;49.920;17.868;2023-06-10T17:32:40;98587.88;;;17.21;94.91
69911;BME280;63555;49.920;17.868;2023-06-10T17:37:40;98602.31;;;17.10;95.08
69911;BME280;63555;49.920;17.868;2023-06-10T17:42:40;98601.28;;;17.03;95.51
69911;BME280;63555;49.920;17.868;2023-06-10T17:47:41;98600.75;;;16.92;95.63
69911;BME280;63555;49.920;17.868;2023-06-10T17:52:41;98600.19;;;16.80;95.75
69911;BME280;63555;49.920;17.868;2023-06-10T17:57:42;98602.50;;;16.75;96.14
69911;BME280;63555;49.920;17.868;2023-06-10T18:02:42;98599.16;;;16.73;96.39
69911;BME280;63555;49.920;17.868;2023-06-10T18:07:42;98606.47;;;16.71;96.90
69911;BME280;63555;49.920;17.868;2023-06-10T18:12:43;98613.78;;;16.69;96.81
69911;BME280;63555;49.920;17.868;2023-06-10T18:17:43;98609.91;;;16.63;96.81
69911;BME280;63555;49.920;17.868;2023-06-10T18:22:44;98612.69;;;16.53;96.74
69911;BME280;63555;49.920;17.868;2023-06-10T18:27:44;98621.28;;;16.47;96.76
69911;BME280;63555;49.920;17.868;2023-06-10T18:32:44;98626.53;;;16.39;96.83
69911;BME280;63555;49.920;17.868;2023-06-10T18:37:45;98619.38;;;16.40;97.28
69911;BME280;63555;49.920;17.868;2023-06-10T18:42:46;98626.53;;;16.39;97.66
69911;BME280;63555;49.920;17.868;2023-06-10T18:47:47;98635.34;;;16.40;97.75
69911;BME280;63555;49.920;17.868;2023-06-10T18:52:48;98641.28;;;16.34;97.17
69911;BME280;63555;49.920;17.868;2023-06-10T18:57:49;98655.06;;;16.29;97.25
69911;BME280;63555;49.920;17.868;2023-06-10T19:02:49;98660.84;;;16.24;97.38
69911;BME280;63555;49.920;17.868;2023-06-10T19:07:50;98674.16;;;16.24;97.62
69911;BME280;63555;49.920;17.868;2023-06-10T19:12:50;98685.31;;;16.28;98.09
69911;BME280;63555;49.920;17.868;2023-06-10T19:17:50;98681.38;;;16.32;98.33
69911;BME280;63555;49.920;17.868;2023-06-10T19:22:51;98688.22;;;16.35;98.50
69911;BME280;63555;49.920;17.868;2023-06-10T19:27:51;98698.16;;;16.33;98.34
69911;BME280;63555;49.920;17.868;2023-06-10T19:32:52;98693.63;;;16.25;98.04
69911;BME280;63555;49.920;17.868;2023-06-10T19:37:52;98694.53;;;16.16;97.80
69911;BME280;63555;49.920;17.868;2023-06-10T19:42:52;98689.97;;;16.08;97.67
69911;BME280;63555;49.920;17.868;2023-06-10T19:47:53;98697.72;;;16.02;97.92
69911;BME280;63555;49.920;17.868;2023-06-10T19:52:53;98697.81;;;15.92;97.95
69911;BME280;63555;49.920;17.868;2023-06-10T19:57:53;98695.38;;;15.81;97.86
69911;BME280;63555;49.920;17.868;2023-06-10T20:02:55;98694.75;;;15.69;97.72
69911;BME280;63555;49.920;17.868;2023-06-10T20:07:55;98702.19;;;15.56;97.42
69911;BME280;63555;49.920;17.868;2023-06-10T20:12:57;98701.41;;;15.46;97.23
69911;BME280;63555;49.920;17.868;2023-06-10T20:17:57;98706.22;;;15.33;96.99
69911;BME280;63555;49.920;17.868;2023-06-10T20:22:58;98707.25;;;15.22;97.07
69911;BME280;63555;49.920;17.868;2023-06-10T20:27:59;98707.16;;;15.14;97.00
69911;BME280;63555;49.920;17.868;2023-06-10T20:33:00;98702.84;;;15.03;96.45
69911;BME280;63555;49.920;17.868;2023-06-10T20:38:00;98707.81;;;14.88;95.85
69911;BME280;63555;49.920;17.868;2023-06-10T20:43:00;98714.25;;;14.76;95.45
69911;BME280;63555;49.920;17.868;2023-06-10T20:48:01;98723.47;;;14.62;95.14
69911;BME280;63555;49.920;17.868;2023-06-10T20:53:01;98719.44;;;14.49;94.96
69911;BME280;63555;49.920;17.868;2023-06-10T20:58:02;98714.97;;;14.40;94.99
69911;BME280;63555;49.920;17.868;2023-06-10T21:03:02;98714.28;;;14.28;94.86
69911;BME280;63555;49.920;17.868;2023-06-10T21:08:03;98717.91;;;14.17;95.09
69911;BME280;63555;49.920;17.868;2023-06-10T21:13:03;98726.69;;;14.08;95.12
69911;BME280;63555;49.920;17.868;2023-06-10T21:18:04;98717.50;;;14.02;95.64
69911;BME280;63555;49.920;17.868;2023-06-10T21:23:04;98726.00;;;13.96;95.57
69911;BME280;63555;49.920;17.868;2023-06-10T21:28:04;98725.84;;;13.98;96.22
69911;BME280;63555;49.920;17.868;2023-06-10T21:33:05;98730.19;;;13.99;96.46
69911;BME280;63555;49.920;17.868;2023-06-10T21:38:05;98727.81;;;13.96;96.22
69911;BME280;63555;49.920;17.868;2023-06-10T21:43:06;98733.81;;;13.88;95.91
69911;BME280;63555;49.920;17.868;2023-06-10T21:48:06;98732.91;;;13.78;95.66
69911;BME280;63555;49.920;17.868;2023-06-10T21:53:07;98733.03;;;13.67;95.56
69911;BME280;63555;49.920;17.868;2023-06-10T21:58:07;98736.50;;;13.58;95.45
69911;BME280;63555;49.920;17.868;2023-06-10T22:03:08;98738.41;;;13.46;95.37
69911;BME280;63555;49.920;17.868;2023-06-10T22:08:09;98735.75;;;13.36;94.99
69911;BME280;63555;49.920;17.868;2023-06-10T22:13:10;98724.53;;;13.23;94.75
69911;BME280;63555;49.920;17.868;2023-06-10T22:18:10;98735.41;;;13.20;95.38
69911;BME280;63555;49.920;17.868;2023-06-10T22:23:10;98728.78;;;13.15;95.91
69911;BME280;63555;49.920;17.868;2023-06-10T22:28:11;98730.72;;;13.13;96.09
69911;BME280;63555;49.920;17.868;2023-06-10T22:33:11;98732.81;;;13.09;95.97
69911;BME280;63555;49.920;17.868;2023-06-10T22:38:11;98725.72;;;13.10;96.71
69911;BME280;63555;49.920;17.868;2023-06-10T22:43:12;98720.72;;;13.16;97.11
69911;BME280;63555;49.920;17.868;2023-06-10T22:48:12;98715.88;;;13.21;97.28
69911;BME280;63555;49.920;17.868;2023-06-10T22:53:13;98718.97;;;13.26;97.56
69911;BME280;63555;49.920;17.868;2023-06-10T22:58:13;98716.06;;;13.29;97.53
69911;BME280;63555;49.920;17.868;2023-06-10T23:03:13;98722.91;;;13.32;97.29
69911;BME280;63555;49.920;17.868;2023-06-10T23:08:14;98715.66;;;13.34;97.41
69911;BME280;63555;49.920;17.868;2023-06-10T23:13:14;98719.00;;;13.36;97.32
69911;BME280;63555;49.920;17.868;2023-06-10T23:18:15;98717.47;;;13.33;97.20
69911;BME280;63555;49.920;17.868;2023-06-10T23:23:16;98712.31;;;13.32;97.25
69911;BME280;63555;49.920;17.868;2023-06-10T23:28:17;98711.88;;;13.27;97.13
69911;BME280;63555;49.920;17.868;2023-06-10T23:33:17;98709.19;;;13.17;96.51
69911;BME280;63555;49.920;17.868;2023-06-10T23:38:18;98724.69;;;13.01;96.05
69911;BME280;63555;49.920;17.868;2023-06-10T23:43:18;98724.31;;;12.85;95.16
69911;BME280;63555;49.920;17.868;2023-06-10T23:48:19;98724.63;;;12.70;95.84
69911;BME280;63555;49.920;17.868;2023-06-10T23:53:19;98726.38;;;12.60;95.82
69911;BME280;63555;49.920;17.868;2023-06-10T23:58:19;98725.94;;;12.55;96.08
